sensor_id;sensor_type;location;lat;lon;timestamp;P1;durP1;ratioP1;P2;durP2;ratioP2
66425;SDS011;53237;46.158;14.604;2024-01-30T00:02:12;33.67;;;18.85;;
66425;SDS011;53237;46.158;14.604;2024-01-30T00:04:38;32.15;;;18.90;;
66425;SDS011;53237;46.158;14.604;2024-01-30T00:07:04;34.58;;;19.10;;
66425;SDS011;53237;46.158;14.604;2024-01-30T00:09:30;35.10;;;19.08;;
66425;SDS011;53237;46.158;14.604;2024-01-30T00:11:56;36.67;;;19.13;;
66425;SDS011;53237;46.158;14.604;2024-01-30T00:14:22;32.08;;;18.63;;
66425;SDS011;53237;46.158;14.604;2024-01-30T00:16:48;31.27;;;17.80;;
66425;SDS011;53237;46.158;14.604;2024-01-30T00:19:14;34.88;;;18.70;;
66425;SDS011;53237;46.158;14.604;2024-01-30T00:21:40;31.98;;;19.50;;
66425;SDS011;53237;46.158;14.604;2024-01-30T00:24:06;33.22;;;18.23;;
66425;SDS011;53237;46.158;14.604;2024-01-30T00:26:32;37.67;;;19.05;;
66425;SDS011;53237;46.158;14.604;2024-01-30T00:28:58;31.38;;;18.42;;
66425;SDS011;53237;46.158;14.604;2024-01-30T00:31:24;34.03;;;18.40;;
66425;SDS011;53237;46.158;14.604;2024-01-30T00:33:50;33.55;;;18.67;;
66425;SDS011;53237;46.158;14.604;2024-01-30T00:36:16;28.98;;;17.02;;
66425;SDS011;53237;46.158;14.604;2024-01-30T00:38:42;33.97;;;19.25;;
66425;SDS011;53237;46.158;14.604;2024-01-30T00:41:08;30.30;;;16.80;;
66425;SDS011;53237;46.158;14.604;2024-01-30T00:43:35;29.45;;;17.00;;
66425;SDS011;53237;46.158;14.604;2024-01-30T00:46:01;31.13;;;18.00;;
66425;SDS011;53237;46.158;14.604;2024-01-30T00:48:28;28.25;;;16.38;;
66425;SDS011;53237;46.158;14.604;2024-01-30T00:50:54;29.85;;;16.75;;
66425;SDS011;53237;46.158;14.604;2024-01-30T00:53:20;28.02;;;15.73;;
66425;SDS011;53237;46.158;14.604;2024-01-30T00:55:46;26.23;;;15.82;;
66425;SDS011;53237;46.158;14.604;2024-01-30T00:58:12;29.17;;;15.88;;
66425;SDS011;53237;46.158;14.604;2024-01-30T01:00:38;26.25;;;14.93;;
66425;SDS011;53237;46.158;14.604;2024-01-30T01:03:04;24.63;;;13.80;;
66425;SDS011;53237;46.158;14.604;2024-01-30T01:05:30;22.35;;;14.20;;
66425;SDS011;53237;46.158;14.604;2024-01-30T01:07:56;23.75;;;13.60;;
66425;SDS011;53237;46.158;14.604;2024-01-30T01:10:22;24.30;;;12.77;;
66425;SDS011;53237;46.158;14.604;2024-01-30T01:12:48;21.52;;;13.40;;
66425;SDS011;53237;46.158;14.604;2024-01-30T01:15:14;23.27;;;13.63;;
66425;SDS011;53237;46.158;14.604;2024-01-30T01:17:40;23.92;;;13.48;;
66425;SDS011;53237;46.158;14.604;2024-01-30T01:20:07;21.17;;;12.65;;
66425;SDS011;53237;46.158;14.604;2024-01-30T01:22:33;24.40;;;12.55;;
66425;SDS011;53237;46.158;14.604;2024-01-30T01:25:02;20.13;;;13.73;;
66425;SDS011;53237;46.158;14.604;2024-01-30T01:27:28;23.73;;;13.35;;
66425;SDS011;53237;46.158;14.604;2024-01-30T01:29:54;27.58;;;13.77;;
66425;SDS011;53237;46.158;14.604;2024-01-30T01:32:20;23.02;;;14.38;;
66425;SDS011;53237;46.158;14.604;2024-01-30T01:34:46;21.10;;;13.90;;
66425;SDS011;53237;46.158;14.604;2024-01-30T01:37:12;25.92;;;13.65;;
66425;SDS011;53237;46.158;14.604;2024-01-30T01:39:38;24.30;;;14.20;;
66425;SDS011;53237;46.158;14.604;2024-01-30T01:42:04;24.05;;;13.35;;
66425;SDS011;53237;46.158;14.604;2024-01-30T01:44:30;25.23;;;13.93;;
66425;SDS011;53237;46.158;14.604;2024-01-30T01:46:56;21.30;;;12.98;;
66425;SDS011;53237;46.158;14.604;2024-01-30T01:49:25;23.75;;;14.18;;
66425;SDS011;53237;46.158;14.604;2024-01-30T01:51:53;24.60;;;14.18;;
66425;SDS011;53237;46.158;14.604;2024-01-30T01:54:20;28.63;;;14.05;;
66425;SDS011;53237;46.158;14.604;2024-01-30T01:56:47;27.50;;;15.18;;
66425;SDS011;53237;46.158;14.604;2024-01-30T01:59:13;26.02;;;15.10;;
66425;SDS011;53237;46.158;14.604;2024-01-30T02:01:39;25.70;;;14.68;;
66425;SDS011;53237;46.158;14.604;2024-01-30T02:04:08;28.15;;;14.52;;
66425;SDS011;53237;46.158;14.604;2024-01-30T02:06:34;25.20;;;14.43;;
66425;SDS011;53237;46.158;14.604;2024-01-30T02:09:00;26.85;;;14.27;;
66425;SDS011;53237;46.158;14.604;2024-01-30T02:11:26;27.55;;;15.38;;
66425;SDS011;53237;46.158;14.604;2024-01-30T02:13:53;24.45;;;14.73;;
66425;SDS011;53237;46.158;14.604;2024-01-30T02:16:19;25.08;;;14.90;;
66425;SDS011;53237;46.158;14.604;2024-01-30T02:18:45;25.75;;;14.35;;
66425;SDS011;53237;46.158;14.604;2024-01-30T02:21:14;27.67;;;15.25;;
66425;SDS011;53237;46.158;14.604;2024-01-30T02:23:40;24.73;;;14.38;;
66425;SDS011;53237;46.158;14.604;2024-01-30T02:26:06;25.17;;;15.05;;
66425;SDS011;53237;46.158;14.604;2024-01-30T02:28:32;26.77;;;14.95;;
66425;SDS011;53237;46.158;14.604;2024-01-30T02:30:58;26.45;;;15.18;;
66425;SDS011;53237;46.158;14.604;2024-01-30T02:33:24;26.33;;;14.95;;
66425;SDS011;53237;46.158;14.604;2024-01-30T02:35:50;24.67;;;14.43;;
66425;SDS011;53237;46.158;14.604;2024-01-30T02:38:16;25.27;;;15.18;;
66425;SDS011;53237;46.158;14.604;2024-01-30T02:40:42;28.55;;;15.48;;
66425;SDS011;53237;46.158;14.604;2024-01-30T02:43:08;25.38;;;14.27;;
66425;SDS011;53237;46.158;14.604;2024-01-30T02:45:34;24.67;;;14.45;;
66425;SDS011;53237;46.158;14.604;2024-01-30T02:48:00;30.45;;;15.02;;
66425;SDS011;53237;46.158;14.604;2024-01-30T02:50:26;25.80;;;13.77;;
66425;SDS011;53237;46.158;14.604;2024-01-30T02:52:52;25.33;;;13.98;;
66425;SDS011;53237;46.158;14.604;2024-01-30T02:55:18;25.27;;;13.80;;
66425;SDS011;53237;46.158;14.604;2024-01-30T02:57:44;24.40;;;14.27;;
66425;SDS011;53237;46.158;14.604;2024-01-30T03:00:10;29.83;;;14.85;;
66425;SDS011;53237;46.158;14.604;2024-01-30T03:02:37;26.30;;;14.32;;
66425;SDS011;53237;46.158;14.604;2024-01-30T03:05:03;23.90;;;13.68;;
66425;SDS011;53237;46.158;14.604;2024-01-30T03:07:29;23.52;;;13.43;;
66425;SDS011;53237;46.158;14.604;2024-01-30T03:09:55;24.38;;;13.68;;
66425;SDS011;53237;46.158;14.604;2024-01-30T03:12:21;27.35;;;14.57;;
66425;SDS011;53237;46.158;14.604;2024-01-30T03:14:48;22.83;;;14.05;;
66425;SDS011;53237;46.158;14.604;2024-01-30T03:17:14;24.67;;;13.43;;
66425;SDS011;53237;46.158;14.604;2024-01-30T03:19:40;24.60;;;13.68;;
66425;SDS011;53237;46.158;14.604;2024-01-30T03:22:07;22.88;;;13.55;;
66425;SDS011;53237;46.158;14.604;2024-01-30T03:24:32;23.27;;;14.43;;
66425;SDS011;53237;46.158;14.604;2024-01-30T03:26:58;24.15;;;13.70;;
66425;SDS011;53237;46.158;14.604;2024-01-30T03:29:24;23.40;;;12.88;;
66425;SDS011;53237;46.158;14.604;2024-01-30T03:31:50;22.60;;;13.32;;
66425;SDS011;53237;46.158;14.604;2024-01-30T03:34:16;22.77;;;14.35;;
66425;SDS011;53237;46.158;14.604;2024-01-30T03:36:42;21.98;;;13.43;;
66425;SDS011;53237;46.158;14.604;2024-01-30T03:39:08;25.52;;;13.57;;
66425;SDS011;53237;46.158;14.604;2024-01-30T03:41:34;23.73;;;13.15;;
66425;SDS011;53237;46.158;14.604;2024-01-30T03:44:01;19.58;;;11.98;;
66425;SDS011;53237;46.158;14.604;2024-01-30T03:46:27;22.45;;;13.70;;
66425;SDS011;53237;46.158;14.604;2024-01-30T03:48:53;27.35;;;13.77;;
66425;SDS011;53237;46.158;14.604;2024-01-30T03:51:19;20.90;;;13.23;;
66425;SDS011;53237;46.158;14.604;2024-01-30T03:53:45;22.13;;;13.35;;
66425;SDS011;53237;46.158;14.604;2024-01-30T03:56:11;21.38;;;12.90;;
66425;SDS011;53237;46.158;14.604;2024-01-30T03:58:38;23.38;;;13.20;;
66425;SDS011;53237;46.158;14.604;2024-01-30T04:01:04;21.85;;;12.55;;
66425;SDS011;53237;46.158;14.604;2024-01-30T04:03:30;26.52;;;12.55;;
66425;SDS011;53237;46.158;14.604;2024-01-30T04:05:56;21.98;;;11.73;;
66425;SDS011;53237;46.158;14.604;2024-01-30T04:08:22;23.23;;;13.18;;
66425;SDS011;53237;46.158;14.604;2024-01-30T04:10:48;23.17;;;12.52;;
66425;SDS011;53237;46.158;14.604;2024-01-30T04:13:14;23.10;;;12.88;;
66425;SDS011;53237;46.158;14.604;2024-01-30T04:15:40;23.35;;;12.88;;
66425;SDS011;53237;46.158;14.604;2024-01-30T04:18:06;20.55;;;12.63;;
66425;SDS011;53237;46.158;14.604;2024-01-30T04:20:32;21.10;;;11.98;;
66425;SDS011;53237;46.158;14.604;2024-01-30T04:22:58;20.15;;;12.63;;
66425;SDS011;53237;46.158;14.604;2024-01-30T04:25:24;18.63;;;11.80;;
66425;SDS011;53237;46.158;14.604;2024-01-30T04:27:50;17.27;;;11.50;;
66425;SDS011;53237;46.158;14.604;2024-01-30T04:30:16;18.92;;;11.20;;
66425;SDS011;53237;46.158;14.604;2024-01-30T04:32:43;19.00;;;11.90;;
66425;SDS011;53237;46.158;14.604;2024-01-30T04:35:09;21.60;;;11.50;;
66425;SDS011;53237;46.158;14.604;2024-01-30T04:37:35;19.38;;;12.20;;
66425;SDS011;53237;46.158;14.604;2024-01-30T04:40:01;21.50;;;11.65;;
66425;SDS011;53237;46.158;14.604;2024-01-30T04:42:28;20.10;;;11.70;;
66425;SDS011;53237;46.158;14.604;2024-01-30T04:44:54;22.50;;;12.43;;
66425;SDS011;53237;46.158;14.604;2024-01-30T04:47:20;20.95;;;12.07;;
66425;SDS011;53237;46.158;14.604;2024-01-30T04:49:46;20.45;;;11.82;;
66425;SDS011;53237;46.158;14.604;2024-01-30T04:52:12;21.45;;;12.02;;
66425;SDS011;53237;46.158;14.604;2024-01-30T04:54:38;19.90;;;11.63;;
66425;SDS011;53237;46.158;14.604;2024-01-30T04:57:04;23.40;;;12.88;;
66425;SDS011;53237;46.158;14.604;2024-01-30T04:59:34;21.55;;;11.73;;
66425;SDS011;53237;46.158;14.604;2024-01-30T05:02:01;20.67;;;11.82;;
66425;SDS011;53237;46.158;14.604;2024-01-30T05:04:27;21.70;;;12.10;;
66425;SDS011;53237;46.158;14.604;2024-01-30T05:06:53;22.50;;;12.05;;
66425;SDS011;53237;46.158;14.604;2024-01-30T05:09:19;19.38;;;12.05;;
66425;SDS011;53237;46.158;14.604;2024-01-30T05:11:46;19.45;;;11.65;;
66425;SDS011;53237;46.158;14.604;2024-01-30T05:14:12;21.33;;;12.50;;
66425;SDS011;53237;46.158;14.604;2024-01-30T05:16:40;22.75;;;12.98;;
66425;SDS011;53237;46.158;14.604;2024-01-30T05:19:06;19.27;;;12.40;;
66425;SDS011;53237;46.158;14.604;2024-01-30T05:21:32;21.92;;;13.02;;
66425;SDS011;53237;46.158;14.604;2024-01-30T05:23:59;23.35;;;12.98;;
66425;SDS011;53237;46.158;14.604;2024-01-30T05:26:25;18.88;;;11.75;;
66425;SDS011;53237;46.158;14.604;2024-01-30T05:28:51;22.38;;;12.13;;
66425;SDS011;53237;46.158;14.604;2024-01-30T05:31:17;22.70;;;12.90;;
66425;SDS011;53237;46.158;14.604;2024-01-30T05:33:43;19.63;;;12.32;;
66425;SDS011;53237;46.158;14.604;2024-01-30T05:36:11;22.13;;;11.85;;
66425;SDS011;53237;46.158;14.604;2024-01-30T05:38:38;22.33;;;13.07;;
66425;SDS011;53237;46.158;14.604;2024-01-30T05:41:04;21.02;;;12.30;;
66425;SDS011;53237;46.158;14.604;2024-01-30T05:43:30;20.17;;;13.00;;
66425;SDS011;53237;46.158;14.604;2024-01-30T05:45:56;21.27;;;13.25;;
66425;SDS011;53237;46.158;14.604;2024-01-30T05:48:22;22.40;;;12.45;;
66425;SDS011;53237;46.158;14.604;2024-01-30T05:50:48;26.70;;;13.10;;
66425;SDS011;53237;46.158;14.604;2024-01-30T05:53:14;22.33;;;13.25;;
66425;SDS011;53237;46.158;14.604;2024-01-30T05:55:40;24.52;;;12.57;;
66425;SDS011;53237;46.158;14.604;2024-01-30T05:58:06;20.88;;;11.85;;
66425;SDS011;53237;46.158;14.604;2024-01-30T06:00:32;20.45;;;11.98;;
66425;SDS011;53237;46.158;14.604;2024-01-30T06:02:58;22.75;;;12.68;;
66425;SDS011;53237;46.158;14.604;2024-01-30T06:05:24;20.30;;;12.38;;
66425;SDS011;53237;46.158;14.604;2024-01-30T06:07:50;22.60;;;12.85;;
66425;SDS011;53237;46.158;14.604;2024-01-30T06:10:16;22.77;;;12.38;;
66425;SDS011;53237;46.158;14.604;2024-01-30T06:12:42;18.88;;;11.60;;
66425;SDS011;53237;46.158;14.604;2024-01-30T06:15:08;23.52;;;12.63;;
66425;SDS011;53237;46.158;14.604;2024-01-30T06:17:35;19.48;;;11.43;;
66425;SDS011;53237;46.158;14.604;2024-01-30T06:20:01;22.75;;;12.95;;
66425;SDS011;53237;46.158;14.604;2024-01-30T06:22:27;20.05;;;12.18;;
66425;SDS011;53237;46.158;14.604;2024-01-30T06:24:53;24.13;;;13.05;;
66425;SDS011;53237;46.158;14.604;2024-01-30T06:27:19;20.35;;;12.65;;
66425;SDS011;53237;46.158;14.604;2024-01-30T06:29:45;24.35;;;13.10;;
66425;SDS011;53237;46.158;14.604;2024-01-30T06:32:11;22.05;;;13.23;;
66425;SDS011;53237;46.158;14.604;2024-01-30T06:34:37;21.00;;;13.00;;
66425;SDS011;53237;46.158;14.604;2024-01-30T06:37:05;24.08;;;12.85;;
66425;SDS011;53237;46.158;14.604;2024-01-30T06:39:31;21.58;;;13.00;;
66425;SDS011;53237;46.158;14.604;2024-01-30T06:41:57;27.25;;;14.13;;
66425;SDS011;53237;46.158;14.604;2024-01-30T06:44:23;26.30;;;15.30;;
66425;SDS011;53237;46.158;14.604;2024-01-30T06:46:49;26.35;;;15.15;;
66425;SDS011;53237;46.158;14.604;2024-01-30T06:49:15;31.08;;;17.63;;
66425;SDS011;53237;46.158;14.604;2024-01-30T06:51:41;26.38;;;15.52;;
66425;SDS011;53237;46.158;14.604;2024-01-30T06:54:07;30.52;;;15.93;;
66425;SDS011;53237;46.158;14.604;2024-01-30T06:56:33;28.45;;;16.70;;
66425;SDS011;53237;46.158;14.604;2024-01-30T06:59:00;27.58;;;17.20;;
66425;SDS011;53237;46.158;14.604;2024-01-30T07:01:29;30.00;;;18.00;;
66425;SDS011;53237;46.158;14.604;2024-01-30T07:03:56;32.53;;;17.80;;
66425;SDS011;53237;46.158;14.604;2024-01-30T07:06:22;34.13;;;19.27;;
66425;SDS011;53237;46.158;14.604;2024-01-30T07:08:48;33.78;;;19.77;;
66425;SDS011;53237;46.158;14.604;2024-01-30T07:11:18;33.60;;;18.35;;
66425;SDS011;53237;46.158;14.604;2024-01-30T07:13:45;35.10;;;18.92;;
66425;SDS011;53237;46.158;14.604;2024-01-30T07:16:11;31.20;;;20.02;;
66425;SDS011;53237;46.158;14.604;2024-01-30T07:18:38;34.80;;;20.58;;
66425;SDS011;53237;46.158;14.604;2024-01-30T07:21:04;33.35;;;20.80;;
66425;SDS011;53237;46.158;14.604;2024-01-30T07:23:30;41.95;;;22.50;;
66425;SDS011;53237;46.158;14.604;2024-01-30T07:25:56;39.08;;;22.65;;
66425;SDS011;53237;46.158;14.604;2024-01-30T07:28:22;39.42;;;22.73;;
66425;SDS011;53237;46.158;14.604;2024-01-30T07:30:48;39.88;;;23.45;;
66425;SDS011;53237;46.158;14.604;2024-01-30T07:33:15;36.13;;;22.85;;
66425;SDS011;53237;46.158;14.604;2024-01-30T07:35:41;42.38;;;24.83;;
66425;SDS011;53237;46.158;14.604;2024-01-30T07:38:07;39.70;;;22.70;;
66425;SDS011;53237;46.158;14.604;2024-01-30T07:40:33;41.65;;;23.77;;
66425;SDS011;53237;46.158;14.604;2024-01-30T07:42:59;36.13;;;22.90;;
66425;SDS011;53237;46.158;14.604;2024-01-30T07:45:26;40.17;;;22.23;;
66425;SDS011;53237;46.158;14.604;2024-01-30T07:47:57;40.17;;;24.30;;
66425;SDS011;53237;46.158;14.604;2024-01-30T07:50:24;43.17;;;24.50;;
66425;SDS011;53237;46.158;14.604;2024-01-30T07:52:50;47.08;;;27.27;;
66425;SDS011;53237;46.158;14.604;2024-01-30T07:55:19;44.88;;;27.15;;
66425;SDS011;53237;46.158;14.604;2024-01-30T07:57:46;44.35;;;26.42;;
66425;SDS011;53237;46.158;14.604;2024-01-30T08:00:13;44.38;;;27.15;;
66425;SDS011;53237;46.158;14.604;2024-01-30T08:02:54;45.70;;;26.75;;
66425;SDS011;53237;46.158;14.604;2024-01-30T08:05:21;47.60;;;26.55;;
66425;SDS011;53237;46.158;14.604;2024-01-30T08:07:48;45.08;;;27.83;;
66425;SDS011;53237;46.158;14.604;2024-01-30T08:10:14;45.08;;;26.80;;
66425;SDS011;53237;46.158;14.604;2024-01-30T08:12:41;42.58;;;28.05;;
66425;SDS011;53237;46.158;14.604;2024-01-30T08:15:07;42.92;;;25.80;;
66425;SDS011;53237;46.158;14.604;2024-01-30T08:17:33;45.70;;;25.55;;
66425;SDS011;53237;46.158;14.604;2024-01-30T08:19:59;44.88;;;27.25;;
66425;SDS011;53237;46.158;14.604;2024-01-30T08:22:25;45.30;;;26.75;;
66425;SDS011;53237;46.158;14.604;2024-01-30T08:24:51;42.60;;;24.85;;
66425;SDS011;53237;46.158;14.604;2024-01-30T08:27:17;44.05;;;25.92;;
66425;SDS011;53237;46.158;14.604;2024-01-30T08:29:43;43.53;;;24.77;;
66425;SDS011;53237;46.158;14.604;2024-01-30T08:32:09;45.35;;;25.75;;
66425;SDS011;53237;46.158;14.604;2024-01-30T08:34:35;43.80;;;24.80;;
66425;SDS011;53237;46.158;14.604;2024-01-30T08:37:02;43.35;;;24.88;;
66425;SDS011;53237;46.158;14.604;2024-01-30T08:39:28;40.78;;;24.75;;
66425;SDS011;53237;46.158;14.604;2024-01-30T08:41:55;39.35;;;24.73;;
66425;SDS011;53237;46.158;14.604;2024-01-30T08:44:21;39.75;;;25.10;;
66425;SDS011;53237;46.158;14.604;2024-01-30T08:46:47;41.15;;;25.63;;
66425;SDS011;53237;46.158;14.604;2024-01-30T08:49:15;40.67;;;24.58;;
66425;SDS011;53237;46.158;14.604;2024-01-30T08:51:42;43.97;;;26.33;;
66425;SDS011;53237;46.158;14.604;2024-01-30T08:54:08;43.50;;;26.25;;
66425;SDS011;53237;46.158;14.604;2024-01-30T08:56:34;39.72;;;25.55;;
66425;SDS011;53237;46.158;14.604;2024-01-30T08:59:00;41.13;;;25.15;;
66425;SDS011;53237;46.158;14.604;2024-01-30T09:01:25;39.55;;;24.73;;
66425;SDS011;53237;46.158;14.604;2024-01-30T09:03:52;43.85;;;24.38;;
66425;SDS011;53237;46.158;14.604;2024-01-30T09:06:18;40.35;;;24.00;;
66425;SDS011;53237;46.158;14.604;2024-01-30T09:08:44;47.70;;;26.52;;
66425;SDS011;53237;46.158;14.604;2024-01-30T09:11:14;41.08;;;26.90;;
66425;SDS011;53237;46.158;14.604;2024-01-30T09:13:41;37.80;;;24.58;;
66425;SDS011;53237;46.158;14.604;2024-01-30T09:16:08;41.28;;;25.73;;
66425;SDS011;53237;46.158;14.604;2024-01-30T09:18:34;38.45;;;26.05;;
66425;SDS011;53237;46.158;14.604;2024-01-30T09:21:00;42.58;;;25.73;;
66425;SDS011;53237;46.158;14.604;2024-01-30T09:23:27;33.95;;;24.30;;
66425;SDS011;53237;46.158;14.604;2024-01-30T09:25:53;36.20;;;25.00;;
66425;SDS011;53237;46.158;14.604;2024-01-30T09:28:19;36.42;;;24.58;;
66425;SDS011;53237;46.158;14.604;2024-01-30T09:30:45;37.53;;;25.10;;
66425;SDS011;53237;46.158;14.604;2024-01-30T09:33:11;40.28;;;25.90;;
66425;SDS011;53237;46.158;14.604;2024-01-30T09:35:37;33.92;;;24.58;;
66425;SDS011;53237;46.158;14.604;2024-01-30T09:38:03;32.40;;;24.80;;
66425;SDS011;53237;46.158;14.604;2024-01-30T09:40:29;37.00;;;25.35;;
66425;SDS011;53237;46.158;14.604;2024-01-30T09:42:55;35.03;;;25.55;;
66425;SDS011;53237;46.158;14.604;2024-01-30T09:45:25;37.33;;;26.95;;
66425;SDS011;53237;46.158;14.604;2024-01-30T09:47:51;35.17;;;26.98;;
66425;SDS011;53237;46.158;14.604;2024-01-30T09:50:17;36.22;;;25.75;;
66425;SDS011;53237;46.158;14.604;2024-01-30T09:52:44;38.33;;;26.73;;
66425;SDS011;53237;46.158;14.604;2024-01-30T09:55:10;36.67;;;26.63;;
66425;SDS011;53237;46.158;14.604;2024-01-30T09:57:36;36.92;;;26.83;;
66425;SDS011;53237;46.158;14.604;2024-01-30T10:00:03;36.75;;;27.30;;
66425;SDS011;53237;46.158;14.604;2024-01-30T10:02:31;33.90;;;26.48;;
66425;SDS011;53237;46.158;14.604;2024-01-30T10:04:57;37.75;;;28.83;;
66425;SDS011;53237;46.158;14.604;2024-01-30T10:07:23;36.60;;;26.95;;
66425;SDS011;53237;46.158;14.604;2024-01-30T10:09:49;35.25;;;27.55;;
66425;SDS011;53237;46.158;14.604;2024-01-30T10:12:15;38.00;;;27.67;;
66425;SDS011;53237;46.158;14.604;2024-01-30T10:14:42;35.15;;;27.40;;
66425;SDS011;53237;46.158;14.604;2024-01-30T10:17:08;36.50;;;28.25;;
66425;SDS011;53237;46.158;14.604;2024-01-30T10:19:35;35.47;;;26.70;;
66425;SDS011;53237;46.158;14.604;2024-01-30T10:22:01;37.60;;;27.35;;
66425;SDS011;53237;46.158;14.604;2024-01-30T10:24:27;31.73;;;26.25;;
66425;SDS011;53237;46.158;14.604;2024-01-30T10:26:54;33.20;;;26.58;;
66425;SDS011;53237;46.158;14.604;2024-01-30T10:29:21;34.08;;;27.30;;
66425;SDS011;53237;46.158;14.604;2024-01-30T10:32:05;34.90;;;28.33;;
66425;SDS011;53237;46.158;14.604;2024-01-30T10:34:31;32.25;;;25.60;;
66425;SDS011;53237;46.158;14.604;2024-01-30T10:37:08;33.45;;;26.60;;
66425;SDS011;53237;46.158;14.604;2024-01-30T10:39:40;31.58;;;26.48;;
66425;SDS011;53237;46.158;14.604;2024-01-30T10:42:07;35.70;;;27.67;;
66425;SDS011;53237;46.158;14.604;2024-01-30T10:45:17;32.65;;;27.20;;
66425;SDS011;53237;46.158;14.604;2024-01-30T10:47:26;29.88;;;25.85;;
66425;SDS011;53237;46.158;14.604;2024-01-30T10:49:52;30.80;;;25.85;;
66425;SDS011;53237;46.158;14.604;2024-01-30T10:52:19;31.75;;;24.83;;
66425;SDS011;53237;46.158;14.604;2024-01-30T10:54:45;31.05;;;25.90;;
66425;SDS011;53237;46.158;14.604;2024-01-30T10:57:12;32.05;;;25.67;;
66425;SDS011;53237;46.158;14.604;2024-01-30T10:59:38;29.60;;;25.08;;
66425;SDS011;53237;46.158;14.604;2024-01-30T11:02:04;29.90;;;24.67;;
66425;SDS011;53237;46.158;14.604;2024-01-30T11:04:37;29.58;;;24.33;;
66425;SDS011;53237;46.158;14.604;2024-01-30T11:07:23;29.52;;;23.52;;
66425;SDS011;53237;46.158;14.604;2024-01-30T11:09:53;28.48;;;22.92;;
66425;SDS011;53237;46.158;14.604;2024-01-30T11:12:23;26.83;;;22.27;;
66425;SDS011;53237;46.158;14.604;2024-01-30T11:14:50;26.45;;;22.25;;
66425;SDS011;53237;46.158;14.604;2024-01-30T11:17:28;25.35;;;20.60;;
66425;SDS011;53237;46.158;14.604;2024-01-30T11:19:54;25.90;;;19.75;;
66425;SDS011;53237;46.158;14.604;2024-01-30T11:22:20;25.50;;;20.77;;
66425;SDS011;53237;46.158;14.604;2024-01-30T11:24:46;24.30;;;20.15;;
66425;SDS011;53237;46.158;14.604;2024-01-30T11:27:13;23.92;;;20.58;;
66425;SDS011;53237;46.158;14.604;2024-01-30T11:29:39;23.65;;;20.17;;
66425;SDS011;53237;46.158;14.604;2024-01-30T11:32:06;31.25;;;26.40;;
66425;SDS011;53237;46.158;14.604;2024-01-30T11:34:32;27.25;;;21.38;;
66425;SDS011;53237;46.158;14.604;2024-01-30T11:37:01;25.02;;;20.90;;
66425;SDS011;53237;46.158;14.604;2024-01-30T11:39:29;23.63;;;19.35;;
66425;SDS011;53237;46.158;14.604;2024-01-30T11:41:55;25.80;;;20.08;;
66425;SDS011;53237;46.158;14.604;2024-01-30T11:44:22;23.27;;;19.77;;
66425;SDS011;53237;46.158;14.604;2024-01-30T11:46:48;21.05;;;18.55;;
66425;SDS011;53237;46.158;14.604;2024-01-30T11:49:14;22.42;;;19.30;;
66425;SDS011;53237;46.158;14.604;2024-01-30T11:51:42;24.50;;;19.10;;
66425;SDS011;53237;46.158;14.604;2024-01-30T11:54:08;23.65;;;19.75;;
66425;SDS011;53237;46.158;14.604;2024-01-30T11:56:34;24.05;;;18.90;;
66425;SDS011;53237;46.158;14.604;2024-01-30T11:59:00;22.20;;;17.98;;
66425;SDS011;53237;46.158;14.604;2024-01-30T12:01:26;21.92;;;17.55;;
66425;SDS011;53237;46.158;14.604;2024-01-30T12:03:52;22.75;;;16.95;;
66425;SDS011;53237;46.158;14.604;2024-01-30T12:06:18;24.20;;;17.75;;
66425;SDS011;53237;46.158;14.604;2024-01-30T12:08:57;25.15;;;19.55;;
66425;SDS011;53237;46.158;14.604;2024-01-30T12:11:24;21.85;;;17.05;;
66425;SDS011;53237;46.158;14.604;2024-01-30T12:13:53;21.15;;;17.65;;
66425;SDS011;53237;46.158;14.604;2024-01-30T12:16:19;22.92;;;18.40;;
66425;SDS011;53237;46.158;14.604;2024-01-30T12:18:46;22.95;;;17.10;;
66425;SDS011;53237;46.158;14.604;2024-01-30T12:21:12;30.63;;;21.88;;
66425;SDS011;53237;46.158;14.604;2024-01-30T12:23:38;27.65;;;22.10;;
66425;SDS011;53237;46.158;14.604;2024-01-30T12:26:04;26.95;;;21.85;;
66425;SDS011;53237;46.158;14.604;2024-01-30T12:28:32;25.13;;;19.88;;
66425;SDS011;53237;46.158;14.604;2024-01-30T12:31:04;22.65;;;18.45;;
66425;SDS011;53237;46.158;14.604;2024-01-30T12:33:30;22.95;;;18.02;;
66425;SDS011;53237;46.158;14.604;2024-01-30T12:35:57;24.48;;;19.55;;
66425;SDS011;53237;46.158;14.604;2024-01-30T12:38:24;22.00;;;18.23;;
66425;SDS011;53237;46.158;14.604;2024-01-30T12:40:53;23.17;;;18.88;;
66425;SDS011;53237;46.158;14.604;2024-01-30T12:43:21;22.13;;;17.95;;
66425;SDS011;53237;46.158;14.604;2024-01-30T12:45:47;24.38;;;17.23;;
66425;SDS011;53237;46.158;14.604;2024-01-30T12:48:14;21.77;;;17.33;;
66425;SDS011;53237;46.158;14.604;2024-01-30T12:50:40;18.55;;;16.52;;
66425;SDS011;53237;46.158;14.604;2024-01-30T12:53:07;21.05;;;17.10;;
66425;SDS011;53237;46.158;14.604;2024-01-30T12:55:34;21.42;;;17.35;;
66425;SDS011;53237;46.158;14.604;2024-01-30T12:58:00;22.90;;;18.42;;
66425;SDS011;53237;46.158;14.604;2024-01-30T13:00:26;26.23;;;19.85;;
66425;SDS011;53237;46.158;14.604;2024-01-30T13:02:52;20.80;;;16.92;;
66425;SDS011;53237;46.158;14.604;2024-01-30T13:05:18;20.10;;;16.45;;
66425;SDS011;53237;46.158;14.604;2024-01-30T13:07:44;20.35;;;18.05;;
66425;SDS011;53237;46.158;14.604;2024-01-30T13:10:10;23.05;;;18.35;;
66425;SDS011;53237;46.158;14.604;2024-01-30T13:12:36;20.65;;;17.08;;
66425;SDS011;53237;46.158;14.604;2024-01-30T13:15:03;19.05;;;16.48;;
66425;SDS011;53237;46.158;14.604;2024-01-30T13:17:30;20.52;;;16.25;;
66425;SDS011;53237;46.158;14.604;2024-01-30T13:19:56;26.25;;;18.67;;
66425;SDS011;53237;46.158;14.604;2024-01-30T13:22:22;24.75;;;19.88;;
66425;SDS011;53237;46.158;14.604;2024-01-30T13:24:48;26.85;;;19.60;;
66425;SDS011;53237;46.158;14.604;2024-01-30T13:27:14;24.40;;;18.80;;
66425;SDS011;53237;46.158;14.604;2024-01-30T13:29:40;27.90;;;18.85;;
66425;SDS011;53237;46.158;14.604;2024-01-30T13:32:06;23.60;;;17.98;;
66425;SDS011;53237;46.158;14.604;2024-01-30T13:34:32;24.02;;;17.90;;
66425;SDS011;53237;46.158;14.604;2024-01-30T13:36:58;21.88;;;16.63;;
66425;SDS011;53237;46.158;14.604;2024-01-30T13:39:24;21.38;;;17.80;;
66425;SDS011;53237;46.158;14.604;2024-01-30T13:41:50;23.92;;;17.75;;
66425;SDS011;53237;46.158;14.604;2024-01-30T13:44:17;19.67;;;16.30;;
66425;SDS011;53237;46.158;14.604;2024-01-30T13:46:43;22.23;;;16.75;;
66425;SDS011;53237;46.158;14.604;2024-01-30T13:49:10;21.33;;;17.70;;
66425;SDS011;53237;46.158;14.604;2024-01-30T13:51:36;21.75;;;17.38;;
66425;SDS011;53237;46.158;14.604;2024-01-30T13:54:02;25.05;;;17.88;;
66425;SDS011;53237;46.158;14.604;2024-01-30T13:56:28;22.30;;;17.70;;
66425;SDS011;53237;46.158;14.604;2024-01-30T13:58:55;21.58;;;17.42;;
66425;SDS011;53237;46.158;14.604;2024-01-30T14:01:21;19.98;;;16.63;;
66425;SDS011;53237;46.158;14.604;2024-01-30T14:03:47;26.17;;;19.05;;
66425;SDS011;53237;46.158;14.604;2024-01-30T14:06:14;22.05;;;17.95;;